sensor_id;sensor_type;location;lat;lon;timestamp;P1;durP1;ratioP1;P2;durP2;ratioP2
19191;SDS011;9728;48.194;16.346;2023-02-15T00:04:56;9.17;;;5.27;;
19191;SDS011;9728;48.194;16.346;2023-02-15T00:10:01;9.37;;;5.70;;
19191;SDS011;9728;48.194;16.346;2023-02-15T00:15:04;8.83;;;5.60;;
19191;SDS011;9728;48.194;16.346;2023-02-15T00:20:08;7.27;;;4.47;;
19191;SDS011;9728;48.194;16.346;2023-02-15T00:25:14;9.03;;;5.03;;
19191;SDS011;9728;48.194;16.346;2023-02-15T00:30:17;10.00;;;5.47;;
19191;SDS011;9728;48.194;16.346;2023-02-15T00:35:21;7.93;;;4.63;;
19191;SDS011;9728;48.194;16.346;2023-02-15T00:40:26;8.80;;;5.23;;
19191;SDS011;9728;48.194;16.346;2023-02-15T00:45:30;8.00;;;4.47;;
19191;SDS011;9728;48.194;16.346;2023-02-15T00:50:34;9.53;;;5.50;;
19191;SDS011;9728;48.194;16.346;2023-02-15T00:55:39;10.00;;;5.67;;
19191;SDS011;9728;48.194;16.346;2023-02-15T01:00:43;8.90;;;4.90;;
19191;SDS011;9728;48.194;16.346;2023-02-15T01:05:48;9.50;;;5.40;;
19191;SDS011;9728;48.194;16.346;2023-02-15T01:10:53;7.33;;;4.53;;
19191;SDS011;9728;48.194;16.346;2023-02-15T01:15:56;9.03;;;5.30;;
19191;SDS011;9728;48.194;16.346;2023-02-15T01:21:08;10.47;;;5.90;;
19191;SDS011;9728;48.194;16.346;2023-02-15T01:26:14;8.83;;;5.07;;
19191;SDS011;9728;48.194;16.346;2023-02-15T01:31:19;8.73;;;4.63;;
19191;SDS011;9728;48.194;16.346;2023-02-15T01:36:24;9.53;;;5.67;;
19191;SDS011;9728;48.194;16.346;2023-02-15T01:41:29;10.37;;;5.83;;
19191;SDS011;9728;48.194;16.346;2023-02-15T01:46:35;8.97;;;5.80;;
19191;SDS011;9728;48.194;16.346;2023-02-15T01:51:44;9.73;;;5.37;;
19191;SDS011;9728;48.194;16.346;2023-02-15T01:56:51;10.27;;;5.83;;
19191;SDS011;9728;48.194;16.346;2023-02-15T02:01:57;12.03;;;6.43;;
19191;SDS011;9728;48.194;16.346;2023-02-15T02:07:02;10.23;;;5.80;;
19191;SDS011;9728;48.194;16.346;2023-02-15T02:12:08;9.80;;;6.07;;
19191;SDS011;9728;48.194;16.346;2023-02-15T02:17:16;12.57;;;6.07;;
19191;SDS011;9728;48.194;16.346;2023-02-15T02:22:50;8.87;;;5.50;;
19191;SDS011;9728;48.194;16.346;2023-02-15T02:28:38;10.70;;;5.93;;
19191;SDS011;9728;48.194;16.346;2023-02-15T02:34:07;10.60;;;6.03;;
19191;SDS011;9728;48.194;16.346;2023-02-15T02:39:21;9.37;;;5.40;;
19191;SDS011;9728;48.194;16.346;2023-02-15T02:44:34;10.20;;;5.33;;
19191;SDS011;9728;48.194;16.346;2023-02-15T02:49:46;9.43;;;5.70;;
19191;SDS011;9728;48.194;16.346;2023-02-15T02:54:50;10.27;;;5.73;;
19191;SDS011;9728;48.194;16.346;2023-02-15T02:59:53;11.70;;;6.17;;
19191;SDS011;9728;48.194;16.346;2023-02-15T03:05:03;9.00;;;5.70;;
19191;SDS011;9728;48.194;16.346;2023-02-15T03:10:11;9.50;;;5.80;;
19191;SDS011;9728;48.194;16.346;2023-02-15T03:15:16;9.30;;;5.27;;
19191;SDS011;9728;48.194;16.346;2023-02-15T03:20:26;10.50;;;5.53;;
19191;SDS011;9728;48.194;16.346;2023-02-15T03:25:36;9.33;;;5.67;;
19191;SDS011;9728;48.194;16.346;2023-02-15T03:30:44;9.97;;;5.73;;
19191;SDS011;9728;48.194;16.346;2023-02-15T03:35:54;9.33;;;5.27;;
19191;SDS011;9728;48.194;16.346;2023-02-15T03:41:04;10.43;;;5.70;;
19191;SDS011;9728;48.194;16.346;2023-02-15T03:46:15;11.37;;;5.87;;
19191;SDS011;9728;48.194;16.346;2023-02-15T03:51:25;9.40;;;5.37;;
19191;SDS011;9728;48.194;16.346;2023-02-15T03:56:38;8.87;;;5.27;;
19191;SDS011;9728;48.194;16.346;2023-02-15T04:01:45;9.43;;;5.60;;
19191;SDS011;9728;48.194;16.346;2023-02-15T04:07:04;9.30;;;5.23;;
19191;SDS011;9728;48.194;16.346;2023-02-15T04:12:08;7.70;;;4.77;;
19191;SDS011;9728;48.194;16.346;2023-02-15T04:17:11;9.80;;;5.93;;
19191;SDS011;9728;48.194;16.346;2023-02-15T04:22:16;8.63;;;5.40;;
19191;SDS011;9728;48.194;16.346;2023-02-15T04:27:37;10.10;;;5.70;;
19191;SDS011;9728;48.194;16.346;2023-02-15T04:32:41;11.57;;;6.20;;
19191;SDS011;9728;48.194;16.346;2023-02-15T04:37:46;11.77;;;6.13;;
19191;SDS011;9728;48.194;16.346;2023-02-15T04:42:49;8.23;;;5.10;;
19191;SDS011;9728;48.194;16.346;2023-02-15T04:47:53;11.07;;;5.40;;
19191;SDS011;9728;48.194;16.346;2023-02-15T04:52:57;11.33;;;6.07;;
19191;SDS011;9728;48.194;16.346;2023-02-15T04:58:00;11.43;;;6.17;;
19191;SDS011;9728;48.194;16.346;2023-02-15T05:03:04;10.17;;;5.53;;
19191;SDS011;9728;48.194;16.346;2023-02-15T05:08:09;9.57;;;5.53;;
19191;SDS011;9728;48.194;16.346;2023-02-15T05:13:12;10.80;;;5.70;;
19191;SDS011;9728;48.194;16.346;2023-02-15T05:18:16;10.40;;;5.93;;
19191;SDS011;9728;48.194;16.346;2023-02-15T05:23:21;8.53;;;5.33;;
19191;SDS011;9728;48.194;16.346;2023-02-15T05:28:25;10.97;;;5.53;;
19191;SDS011;9728;48.194;16.346;2023-02-15T05:33:30;11.53;;;6.37;;
19191;SDS011;9728;48.194;16.346;2023-02-15T05:38:35;12.17;;;7.00;;
19191;SDS011;9728;48.194;16.346;2023-02-15T05:43:39;11.27;;;5.80;;
19191;SDS011;9728;48.194;16.346;2023-02-15T05:48:43;9.57;;;5.40;;
19191;SDS011;9728;48.194;16.346;2023-02-15T05:53:48;9.97;;;5.47;;
19191;SDS011;9728;48.194;16.346;2023-02-15T05:58:52;11.00;;;5.70;;
19191;SDS011;9728;48.194;16.346;2023-02-15T06:03:56;11.27;;;5.77;;
19191;SDS011;9728;48.194;16.346;2023-02-15T06:09:01;12.73;;;6.23;;
19191;SDS011;9728;48.194;16.346;2023-02-15T06:14:04;12.90;;;6.60;;
19191;SDS011;9728;48.194;16.346;2023-02-15T06:19:08;10.17;;;5.43;;
19191;SDS011;9728;48.194;16.346;2023-02-15T06:24:15;10.70;;;5.70;;
19191;SDS011;9728;48.194;16.346;2023-02-15T06:29:19;11.90;;;6.77;;
19191;SDS011;9728;48.194;16.346;2023-02-15T06:34:22;10.63;;;5.67;;
19191;SDS011;9728;48.194;16.346;2023-02-15T06:39:27;10.67;;;5.70;;
19191;SDS011;9728;48.194;16.346;2023-02-15T06:44:30;9.50;;;5.30;;
19191;SDS011;9728;48.194;16.346;2023-02-15T06:49:33;8.63;;;5.00;;
19191;SDS011;9728;48.194;16.346;2023-02-15T06:54:38;8.90;;;5.17;;
19191;SDS011;9728;48.194;16.346;2023-02-15T06:59:41;11.23;;;5.40;;
19191;SDS011;9728;48.194;16.346;2023-02-15T07:04:45;10.33;;;5.43;;
19191;SDS011;9728;48.194;16.346;2023-02-15T07:09:50;10.30;;;5.37;;
19191;SDS011;9728;48.194;16.346;2023-02-15T07:14:55;9.17;;;5.27;;
19191;SDS011;9728;48.194;16.346;2023-02-15T07:20:02;10.43;;;4.97;;
19191;SDS011;9728;48.194;16.346;2023-02-15T07:25:09;11.07;;;5.77;;
19191;SDS011;9728;48.194;16.346;2023-02-15T07:30:15;8.77;;;4.63;;
19191;SDS011;9728;48.194;16.346;2023-02-15T07:35:19;9.63;;;5.57;;
19191;SDS011;9728;48.194;16.346;2023-02-15T07:40:24;11.47;;;6.03;;
19191;SDS011;9728;48.194;16.346;2023-02-15T07:45:28;11.90;;;5.67;;
19191;SDS011;9728;48.194;16.346;2023-02-15T07:50:31;8.60;;;4.77;;
19191;SDS011;9728;48.194;16.346;2023-02-15T07:55:37;8.33;;;5.07;;
19191;SDS011;9728;48.194;16.346;2023-02-15T08:00:40;11.03;;;5.10;;
19191;SDS011;9728;48.194;16.346;2023-02-15T08:05:58;10.27;;;5.10;;
19191;SDS011;9728;48.194;16.346;2023-02-15T08:11:04;6.80;;;4.27;;
19191;SDS011;9728;48.194;16.346;2023-02-15T08:16:31;10.83;;;6.30;;
19191;SDS011;9728;48.194;16.346;2023-02-15T08:21:37;10.13;;;5.53;;
19191;SDS011;9728;48.194;16.346;2023-02-15T08:26:43;9.93;;;5.33;;
19191;SDS011;9728;48.194;16.346;2023-02-15T08:31:48;8.73;;;5.23;;
19191;SDS011;9728;48.194;16.346;2023-02-15T08:36:52;10.13;;;5.20;;
19191;SDS011;9728;48.194;16.346;2023-02-15T08:41:56;9.60;;;5.13;;
19191;SDS011;9728;48.194;16.346;2023-02-15T08:47:00;8.87;;;4.93;;
19191;SDS011;9728;48.194;16.346;2023-02-15T08:52:05;8.73;;;4.90;;
19191;SDS011;9728;48.194;16.346;2023-02-15T08:57:10;9.63;;;5.30;;
19191;SDS011;9728;48.194;16.346;2023-02-15T09:02:13;11.03;;;5.30;;
19191;SDS011;9728;48.194;16.346;2023-02-15T09:07:17;9.27;;;5.17;;
19191;SDS011;9728;48.194;16.346;2023-02-15T09:12:22;12.43;;;5.73;;
19191;SDS011;9728;48.194;16.346;2023-02-15T09:17:25;11.30;;;5.43;;
19191;SDS011;9728;48.194;16.346;2023-02-15T09:22:28;10.43;;;6.00;;
19191;SDS011;9728;48.194;16.346;2023-02-15T09:27:34;10.00;;;5.47;;
19191;SDS011;9728;48.194;16.346;2023-02-15T09:32:38;10.40;;;5.83;;
19191;SDS011;9728;48.194;16.346;2023-02-15T09:37:41;9.60;;;5.47;;
19191;SDS011;9728;48.194;16.346;2023-02-15T09:53:48;10.40;;;5.50;;
19191;SDS011;9728;48.194;16.346;2023-02-15T09:59:03;9.40;;;5.20;;
19191;SDS011;9728;48.194;16.346;2023-02-15T10:04:18;11.17;;;5.90;;
19191;SDS011;9728;48.194;16.346;2023-02-15T10:09:35;9.97;;;5.47;;
19191;SDS011;9728;48.194;16.346;2023-02-15T10:14:55;9.13;;;5.27;;
19191;SDS011;9728;48.194;16.346;2023-02-15T10:20:16;8.93;;;5.13;;
19191;SDS011;9728;48.194;16.346;2023-02-15T10:25:28;11.13;;;5.73;;
19191;SDS011;9728;48.194;16.346;2023-02-15T10:30:41;10.03;;;5.50;;
19191;SDS011;9728;48.194;16.346;2023-02-15T10:35:52;12.33;;;6.00;;
19191;SDS011;9728;48.194;16.346;2023-02-15T10:41:08;9.97;;;5.37;;
19191;SDS011;9728;48.194;16.346;2023-02-15T10:46:25;10.50;;;5.20;;
19191;SDS011;9728;48.194;16.346;2023-02-15T10:51:40;9.23;;;5.17;;
19191;SDS011;9728;48.194;16.346;2023-02-15T10:56:54;12.60;;;6.17;;
19191;SDS011;9728;48.194;16.346;2023-02-15T11:02:10;10.07;;;5.30;;
19191;SDS011;9728;48.194;16.346;2023-02-15T11:07:21;10.90;;;5.50;;
19191;SDS011;9728;48.194;16.346;2023-02-15T11:12:27;9.77;;;5.63;;
19191;SDS011;9728;48.194;16.346;2023-02-15T11:17:38;11.93;;;5.70;;
19191;SDS011;9728;48.194;16.346;2023-02-15T11:22:46;11.30;;;5.87;;
19191;SDS011;9728;48.194;16.346;2023-02-15T11:27:52;8.90;;;5.40;;
19191;SDS011;9728;48.194;16.346;2023-02-15T11:32:59;10.47;;;5.63;;
19191;SDS011;9728;48.194;16.346;2023-02-15T11:38:10;11.73;;;5.80;;
19191;SDS011;9728;48.194;16.346;2023-02-15T11:43:20;9.37;;;4.77;;
19191;SDS011;9728;48.194;16.346;2023-02-15T11:48:30;13.37;;;6.50;;
19191;SDS011;9728;48.194;16.346;2023-02-15T11:53:36;8.70;;;5.10;;
19191;SDS011;9728;48.194;16.346;2023-02-15T11:58:41;10.60;;;5.57;;
19191;SDS011;9728;48.194;16.346;2023-02-15T12:03:50;11.30;;;5.57;;
19191;SDS011;9728;48.194;16.346;2023-02-15T12:09:00;11.23;;;5.53;;
19191;SDS011;9728;48.194;16.346;2023-02-15T12:14:08;10.13;;;5.23;;
19191;SDS011;9728;48.194;16.346;2023-02-15T12:19:18;9.17;;;4.90;;
19191;SDS011;9728;48.194;16.346;2023-02-15T12:24:27;10.33;;;5.97;;
19191;SDS011;9728;48.194;16.346;2023-02-15T12:29:34;11.97;;;5.63;;
19191;SDS011;9728;48.194;16.346;2023-02-15T12:34:43;13.57;;;5.97;;
19191;SDS011;9728;48.194;16.346;2023-02-15T12:39:53;12.10;;;5.90;;
19191;SDS011;9728;48.194;16.346;2023-02-15T12:44:59;11.13;;;5.70;;
19191;SDS011;9728;48.194;16.346;2023-02-15T12:50:06;10.27;;;4.97;;
19191;SDS011;9728;48.194;16.346;2023-02-15T12:55:21;11.33;;;5.97;;
19191;SDS011;9728;48.194;16.346;2023-02-15T13:00:26;8.80;;;4.60;;
19191;SDS011;9728;48.194;16.346;2023-02-15T13:05:35;9.90;;;5.77;;
19191;SDS011;9728;48.194;16.346;2023-02-15T13:10:52;9.80;;;5.30;;
19191;SDS011;9728;48.194;16.346;2023-02-15T13:15:58;12.67;;;6.43;;
19191;SDS011;9728;48.194;16.346;2023-02-15T13:21:06;10.10;;;4.73;;
19191;SDS011;9728;48.194;16.346;2023-02-15T13:26:14;11.23;;;5.93;;
19191;SDS011;9728;48.194;16.346;2023-02-15T13:31:22;11.37;;;6.63;;
19191;SDS011;9728;48.194;16.346;2023-02-15T13:36:33;12.00;;;5.93;;
19191;SDS011;9728;48.194;16.346;2023-02-15T13:41:47;13.87;;;6.67;;
19191;SDS011;9728;48.194;16.346;2023-02-15T13:46:59;13.07;;;6.40;;
19191;SDS011;9728;48.194;16.346;2023-02-15T13:52:16;12.50;;;6.10;;
19191;SDS011;9728;48.194;16.346;2023-02-15T13:57:36;12.47;;;6.37;;
19191;SDS011;9728;48.194;16.346;2023-02-15T14:03:18;12.80;;;5.87;;
19191;SDS011;9728;48.194;16.346;2023-02-15T14:08:57;11.20;;;6.37;;
19191;SDS011;9728;48.194;16.346;2023-02-15T14:19:55;7.73;;;4.73;;
19191;SDS011;9728;48.194;16.346;2023-02-15T14:30:39;10.77;;;5.70;;
19191;SDS011;9728;48.194;16.346;2023-02-15T14:35:45;12.33;;;5.93;;
19191;SDS011;9728;48.194;16.346;2023-02-15T14:40:51;11.10;;;5.83;;
19191;SDS011;9728;48.194;16.346;2023-02-15T14:46:07;10.93;;;5.63;;
19191;SDS011;9728;48.194;16.346;2023-02-15T15:02:43;9.90;;;5.57;;
19191;SDS011;9728;48.194;16.346;2023-02-15T15:07:50;10.73;;;5.80;;
19191;SDS011;9728;48.194;16.346;2023-02-15T15:12:58;14.37;;;7.43;;
19191;SDS011;9728;48.194;16.346;2023-02-15T15:23:48;10.13;;;5.27;;
19191;SDS011;9728;48.194;16.346;2023-02-15T15:28:52;10.40;;;5.40;;
19191;SDS011;9728;48.194;16.346;2023-02-15T15:34:03;13.30;;;6.30;;
19191;SDS011;9728;48.194;16.346;2023-02-15T15:50:58;13.90;;;6.73;;
19191;SDS011;9728;48.194;16.346;2023-02-15T15:56:04;12.63;;;6.90;;
19191;SDS011;9728;48.194;16.346;2023-02-15T16:01:12;16.33;;;7.93;;
19191;SDS011;9728;48.194;16.346;2023-02-15T16:06:29;14.90;;;7.83;;
19191;SDS011;9728;48.194;16.346;2023-02-15T16:11:37;16.53;;;8.20;;
19191;SDS011;9728;48.194;16.346;2023-02-15T16:22:09;15.47;;;8.70;;
19191;SDS011;9728;48.194;16.346;2023-02-15T16:27:32;16.57;;;8.27;;
19191;SDS011;9728;48.194;16.346;2023-02-15T16:32:38;14.77;;;7.17;;
19191;SDS011;9728;48.194;16.346;2023-02-15T16:37:45;27.83;;;8.23;;
19191;SDS011;9728;48.194;16.346;2023-02-15T16:42:49;14.87;;;7.47;;
19191;SDS011;9728;48.194;16.346;2023-02-15T16:47:55;14.07;;;7.47;;
19191;SDS011;9728;48.194;16.346;2023-02-15T16:53:03;13.53;;;7.30;;
19191;SDS011;9728;48.194;16.346;2023-02-15T16:58:12;14.03;;;7.27;;
19191;SDS011;9728;48.194;16.346;2023-02-15T17:03:20;13.37;;;7.40;;
19191;SDS011;9728;48.194;16.346;2023-02-15T17:08:30;13.20;;;6.80;;
19191;SDS011;9728;48.194;16.346;2023-02-15T17:19:21;13.47;;;6.63;;
19191;SDS011;9728;48.194;16.346;2023-02-15T17:24:34;14.67;;;7.83;;
19191;SDS011;9728;48.194;16.346;2023-02-15T17:29:43;16.47;;;8.20;;
19191;SDS011;9728;48.194;16.346;2023-02-15T17:35:00;18.73;;;9.67;;
19191;SDS011;9728;48.194;16.346;2023-02-15T17:45:38;19.10;;;9.43;;
19191;SDS011;9728;48.194;16.346;2023-02-15T17:50:48;16.13;;;8.87;;
19191;SDS011;9728;48.194;16.346;2023-02-15T17:55:59;13.63;;;7.53;;
19191;SDS011;9728;48.194;16.346;2023-02-15T18:01:13;12.97;;;7.03;;
19191;SDS011;9728;48.194;16.346;2023-02-15T18:06:39;16.83;;;7.57;;
19191;SDS011;9728;48.194;16.346;2023-02-15T18:12:11;14.43;;;7.77;;
19191;SDS011;9728;48.194;16.346;2023-02-15T18:17:25;16.50;;;8.27;;
19191;SDS011;9728;48.194;16.346;2023-02-15T18:22:39;16.53;;;7.57;;
19191;SDS011;9728;48.194;16.346;2023-02-15T18:27:46;14.37;;;7.23;;
19191;SDS011;9728;48.194;16.346;2023-02-15T18:32:56;14.83;;;8.37;;
19191;SDS011;9728;48.194;16.346;2023-02-15T18:38:03;16.53;;;8.03;;
19191;SDS011;9728;48.194;16.346;2023-02-15T18:43:16;16.50;;;8.70;;
19191;SDS011;9728;48.194;16.346;2023-02-15T18:48:24;16.57;;;8.80;;
19191;SDS011;9728;48.194;16.346;2023-02-15T18:53:33;15.37;;;8.17;;
19191;SDS011;9728;48.194;16.346;2023-02-15T18:58:40;16.90;;;9.10;;
19191;SDS011;9728;48.194;16.346;2023-02-15T19:03:48;16.30;;;8.00;;
19191;SDS011;9728;48.194;16.346;2023-02-15T19:08:55;12.27;;;6.77;;
19191;SDS011;9728;48.194;16.346;2023-02-15T19:14:02;17.63;;;8.20;;
19191;SDS011;9728;48.194;16.346;2023-02-15T19:19:09;17.70;;;8.97;;
19191;SDS011;9728;48.194;16.346;2023-02-15T19:24:20;19.90;;;9.03;;
19191;SDS011;9728;48.194;16.346;2023-02-15T19:29:34;16.93;;;9.40;;
19191;SDS011;9728;48.194;16.346;2023-02-15T19:34:42;17.27;;;8.17;;
19191;SDS011;9728;48.194;16.346;2023-02-15T19:39:48;17.63;;;8.57;;
19191;SDS011;9728;48.194;16.346;2023-02-15T19:44:55;19.30;;;9.60;;
19191;SDS011;9728;48.194;16.346;2023-02-15T19:50:02;18.17;;;9.30;;
19191;SDS011;9728;48.194;16.346;2023-02-15T19:55:19;16.57;;;8.57;;
19191;SDS011;9728;48.194;16.346;2023-02-15T20:00:33;18.97;;;9.83;;
19191;SDS011;9728;48.194;16.346;2023-02-15T20:05:41;16.50;;;8.87;;
19191;SDS011;9728;48.194;16.346;2023-02-15T20:10:50;21.03;;;10.03;;
19191;SDS011;9728;48.194;16.346;2023-02-15T20:16:00;18.20;;;9.50;;
19191;SDS011;9728;48.194;16.346;2023-02-15T20:21:12;15.83;;;8.87;;
19191;SDS011;9728;48.194;16.346;2023-02-15T20:26:21;17.63;;;9.20;;
19191;SDS011;9728;48.194;16.346;2023-02-15T20:31:34;15.83;;;8.40;;
19191;SDS011;9728;48.194;16.346;2023-02-15T20:36:44;15.53;;;8.73;;
19191;SDS011;9728;48.194;16.346;2023-02-15T20:41:50;16.17;;;8.67;;
19191;SDS011;9728;48.194;16.346;2023-02-15T20:47:11;18.17;;;9.30;;
19191;SDS011;9728;48.194;16.346;2023-02-15T20:52:20;20.50;;;10.47;;
19191;SDS011;9728;48.194;16.346;2023-02-15T20:57:30;20.23;;;9.83;;
19191;SDS011;9728;48.194;16.346;2023-02-15T21:02:38;18.37;;;9.93;;
19191;SDS011;9728;48.194;16.346;2023-02-15T21:07:44;19.10;;;9.73;;
19191;SDS011;9728;48.194;16.346;2023-02-15T21:12:49;20.13;;;10.70;;
19191;SDS011;9728;48.194;16.346;2023-02-15T21:17:59;20.57;;;10.63;;
19191;SDS011;9728;48.194;16.346;2023-02-15T21:23:09;18.20;;;10.13;;
19191;SDS011;9728;48.194;16.346;2023-02-15T21:28:18;18.87;;;10.50;;
19191;SDS011;9728;48.194;16.346;2023-02-15T21:33:26;23.60;;;12.00;;
19191;SDS011;9728;48.194;16.346;2023-02-15T21:38:30;20.20;;;10.77;;
19191;SDS011;9728;48.194;16.346;2023-02-15T21:43:35;20.03;;;9.90;;
19191;SDS011;9728;48.194;16.346;2023-02-15T21:48:59;17.93;;;9.20;;
19191;SDS011;9728;48.194;16.346;2023-02-15T21:54:09;21.00;;;10.00;;
19191;SDS011;9728;48.194;16.346;2023-02-15T21:59:15;20.53;;;9.77;;
19191;SDS011;9728;48.194;16.346;2023-02-15T22:04:23;16.20;;;9.40;;
19191;SDS011;9728;48.194;16.346;2023-02-15T22:09:29;18.27;;;9.50;;
19191;SDS011;9728;48.194;16.346;2023-02-15T22:14:34;18.47;;;9.43;;
19191;SDS011;9728;48.194;16.346;2023-02-15T22:19:40;16.33;;;9.27;;
19191;SDS011;9728;48.194;16.346;2023-02-15T22:24:44;19.73;;;9.80;;
19191;SDS011;9728;48.194;16.346;2023-02-15T22:29:48;17.17;;;8.73;;
19191;SDS011;9728;48.194;16.346;2023-02-15T22:34:53;20.00;;;9.83;;
19191;SDS011;9728;48.194;16.346;2023-02-15T22:39:57;18.27;;;9.00;;
19191;SDS011;9728;48.194;16.346;2023-02-15T22:45:01;16.27;;;8.63;;
19191;SDS011;9728;48.194;16.346;2023-02-15T22:50:13;18.87;;;10.33;;
19191;SDS011;9728;48.194;16.346;2023-02-15T22:55:20;15.23;;;8.50;;
19191;SDS011;9728;48.194;16.346;2023-02-15T23:00:26;18.33;;;8.93;;
19191;SDS011;9728;48.194;16.346;2023-02-15T23:05:34;14.13;;;7.90;;
19191;SDS011;9728;48.194;16.346;2023-02-15T23:10:38;19.13;;;9.10;;
19191;SDS011;9728;48.194;16.346;2023-02-15T23:15:43;17.33;;;9.60;;
19191;SDS011;9728;48.194;16.346;2023-02-15T23:20:54;16.90;;;8.50;;
19191;SDS011;9728;48.194;16.346;2023-02-15T23:25:59;14.03;;;7.90;;
19191;SDS011;9728;48.194;16.346;2023-02-15T23:31:08;19.40;;;10.07;;
19191;SDS011;9728;48.194;16.346;2023-02-15T23:36:23;18.33;;;9.10;;
19191;SDS011;9728;48.194;16.346;2023-02-15T23:41:29;18.73;;;9.00;;
19191;SDS011;9728;48.194;16.346;2023-02-15T23:46:35;19.10;;;8.90;;
19191;SDS011;9728;48.194;16.346;2023-02-15T23:51:45;21.90;;;10.10;;
19191;SDS011;9728;48.194;16.346;2023-02-15T23:56:50;21.33;;;10.83;;
